Time,TemperatureF,DewpointF,PressureIn,WindDirection,WindDirectionDegrees,WindSpeedMPH,WindSpeedGustMPH,Humidity,HourlyPrecipIn,Conditions,Clouds,dailyrainin,SoftwareType,DateUTC
2014-02-08 00:00:00,46.5,38.3,30.10,South,171,17.3,17.3,73,0.00,CLR,,0.00,WeatherDisplay:10.37,2014-02-08 08:00:00,
2014-02-08 00:05:00,46.7,38.1,30.11,South,184,17.3,17.3,72,0.00,CLR,,0.00,WeatherDisplay:10.37,2014-02-08 08:05:00,
2014-02-08 00:10:00,46.6,38.1,30.11,SSW,198,15.0,15.0,72,0.00,CLR,,0.00,WeatherDisplay:10.37,2014-02-08 08:10:00,
2014-02-08 00:15:00,46.5,38.0,30.11,South,187,18.4,18.4,72,0.00,CLR,,0.00,WeatherDisplay:10.37,2014-02-08 08:15:00,
2014-02-08 00:20:00,47.1,38.5,30.11,SE,144,21.9,21.9,72,0.00,CLR,,0.00,WeatherDisplay:10.37,2014-02-08 08:20:00,
2014-02-08 00:25:00,47.0,38.1,30.11,South,186,11.5,11.5,71,0.00,CLR,,0.00,WeatherDisplay:10.37,2014-02-08 08:25:00,
2014-02-08 00:30:00,46.9,38.3,30.12,SSW,200,21.9,21.9,72,0.00,CLR,,0.00,WeatherDisplay:10.37,2014-02-08 08:30:00,
2014-02-08 00:35:00,47.1,38.5,30.12,South,191,19.6,19.6,72,0.00,CLR,,0.00,WeatherDisplay:10.37,2014-02-08 08:35:00,
2014-02-08 00:40:00,47.1,38.5,30.12,South,190,19.6,19.6,72,0.00,CLR,,0.00,WeatherDisplay:10.37,2014-02-08 08:40:00,
2014-02-08 00:45:00,47.0,38.4,30.12,SSW,192,16.1,16.1,72,0.00,CLR,,0.00,WeatherDisplay:10.37,2014-02-08 08:45:00,
2014-02-08 00:50:00,47.0,38.4,30.12,West,260,14.0,14.0,72,0.00,CLR,,0.00,WeatherDisplay:10.37,2014-02-08 08:50:00,
2014-02-08 00:55:00,47.4,38.5,30.12,SSW,198,25.0,25.0,71,0.00,CLR,,0.00,WeatherDisplay:10.37,2014-02-08 08:55:00,
2014-02-08 01:00:00,47.7,38.8,30.11,SW,227,18.4,18.4,71,0.00,CLR,,0.00,WeatherDisplay:10.37,2014-02-08 09:00:00,
2014-02-08 01:05:00,47.9,38.6,30.12,SSW,207,18.4,18.4,70,0.00,CLR,,0.00,WeatherDisplay:10.37,2014-02-08 09:05:00,
2014-02-08 01:10:00,48.2,38.5,30.12,SW,235,19.6,19.6,69,0.00,CLR,,0.00,WeatherDisplay:10.37,2014-02-08 09:10:00,
2014-02-08 01:15:00,48.5,38.0,30.12,West,273,19.6,19.6,67,0.00,CLR,,0.00,WeatherDisplay:10.37,2014-02-08 09:15:00,
2014-02-08 01:20:00,48.6,37.7,30.12,SW,236,17.3,17.3,66,0.00,CLR,,0.00,WeatherDisplay:10.37,2014-02-08 09:20:00,
2014-02-08 01:25:00,48.5,37.7,30.12,WSW,246,16.1,16.1,66,0.00,CLR,,0.00,WeatherDisplay:10.37,2014-02-08 09:25:00,
2014-02-08 01:30:00,48.3,37.8,30.12,WSW,248,19.6,19.6,67,0.00,CLR,,0.00,WeatherDisplay:10.37,2014-02-08 09:30:00,
2014-02-08 01:35:00,48.3,37.8,30.12,SW,230,17.3,17.3,67,0.00,CLR,,0.00,WeatherDisplay:10.37,2014-02-08 09:35:00,
2014-02-08 01:40:00,48.5,37.7,30.12,SW,225,16.1,16.1,66,0.00,CLR,,0.00,WeatherDisplay:10.37,2014-02-08 09:40:00,
2014-02-08 01:45:00,48.5,37.3,30.12,SW,236,12.7,12.7,65,0.00,CLR,,0.00,WeatherDisplay:10.37,2014-02-08 09:45:00,
2014-02-08 01:50:00,48.7,37.1,30.12,SW,236,11.5,11.5,64,0.00,CLR,,0.00,WeatherDisplay:10.37,2014-02-08 09:50:00,
2014-02-08 01:55:00,48.8,36.8,30.12,SSW,210,17.3,17.3,63,0.00,CLR,,0.00,WeatherDisplay:10.37,2014-02-08 09:55:00,
2014-02-08 02:00:00,48.6,36.6,30.12,SW,234,17.3,17.3,63,0.00,CLR,,0.00,WeatherDisplay:10.37,2014-02-08 10:00:00,
2014-02-08 02:05:00,48.3,36.3,30.12,SW,236,20.7,20.7,63,0.00,CLR,,0.00,WeatherDisplay:10.37,2014-02-08 10:05:00,
2014-02-08 02:10:00,48.0,36.8,30.12,WSW,244,19.6,19.6,65,0.00,CLR,,0.00,WeatherDisplay:10.37,2014-02-08 10:10:00,
2014-02-08 02:15:00,47.8,37.0,30.12,SW,225,17.3,17.3,66,0.00,CLR,,0.00,WeatherDisplay:10.37,2014-02-08 10:15:00,
2014-02-08 02:20:00,47.7,37.3,30.12,WSW,248,21.9,21.9,67,0.00,CLR,,0.00,WeatherDisplay:10.37,2014-02-08 10:20:00,
2014-02-08 02:25:00,47.9,37.1,30.12,SW,230,19.6,19.6,66,0.00,CLR,,0.00,WeatherDisplay:10.37,2014-02-08 10:25:00,
2014-02-08 02:30:00,48.1,36.5,30.12,SSW,209,19.6,19.6,64,0.00,CLR,,0.00,WeatherDisplay:10.37,2014-02-08 10:30:00,
2014-02-08 02:35:00,47.9,36.3,30.12,WSW,252,15.0,15.0,64,0.00,CLR,,0.00,WeatherDisplay:10.37,2014-02-08 10:35:00,
2014-02-08 02:40:00,47.7,36.1,30.12,SW,222,6.9,6.9,64,0.00,CLR,,0.00,WeatherDisplay:10.37,2014-02-08 10:40:00,
2014-02-08 02:45:00,46.9,36.5,30.12,South,187,6.9,6.9,67,0.00,CLR,,0.00,WeatherDisplay:10.37,2014-02-08 10:45:00,
2014-02-08 02:50:00,46.0,37.1,30.12,SSW,211,10.4,10.4,71,0.00,CLR,,0.00,WeatherDisplay:10.37,2014-02-08 10:50:00,
2014-02-08 02:55:00,45.4,36.9,30.12,SW,225,6.0,6.0,72,0.00,CLR,,0.00,WeatherDisplay:10.37,2014-02-08 10:55:00,
2014-02-08 03:00:00,45.6,37.4,30.11,SW,226,17.3,17.3,73,0.00,CLR,,0.00,WeatherDisplay:10.37,2014-02-08 11:00:00,
2014-02-08 03:05:00,46.5,37.2,30.11,West,261,5.8,5.8,70,0.00,CLR,,0.00,WeatherDisplay:10.37,2014-02-08 11:05:00,
2014-02-08 03:10:00,46.8,36.8,30.11,SW,233,6.9,6.9,68,0.00,CLR,,0.00,WeatherDisplay:10.37,2014-02-08 11:10:00,
2014-02-08 03:15:00,46.9,36.5,30.12,SW,215,6.9,6.9,67,0.00,CLR,,0.00,WeatherDisplay:10.37,2014-02-08 11:15:00,
2014-02-08 03:20:00,47.0,36.6,30.12,SSW,205,9.2,9.2,67,0.00,CLR,,0.00,WeatherDisplay:10.37,2014-02-08 11:20:00,
2014-02-08 03:25:00,47.0,36.6,30.12,SSW,202,7.0,7.0,67,0.00,CLR,,0.00,WeatherDisplay:10.37,2014-02-08 11:25:00,
2014-02-08 03:30:00,47.2,36.4,30.12,SSW,213,11.5,11.5,66,0.00,CLR,,0.00,WeatherDisplay:10.37,2014-02-08 11:30:00,
2014-02-08 03:35:00,47.5,36.3,30.12,WSW,257,11.5,11.5,65,0.00,CLR,,0.00,WeatherDisplay:10.37,2014-02-08 11:35:00,
2014-02-08 03:40:00,47.8,35.8,30.12,West,262,11.5,11.5,63,0.00,CLR,,0.00,WeatherDisplay:10.37,2014-02-08 11:40:00,
2014-02-08 03:45:00,48.3,35.9,30.12,WSW,257,11.5,11.5,62,0.00,CLR,,0.00,WeatherDisplay:10.37,2014-02-08 11:45:00,
2014-02-08 03:50:00,48.4,35.6,30.12,SW,230,11.5,11.5,61,0.00,CLR,,0.00,WeatherDisplay:10.37,2014-02-08 11:50:00,
2014-02-08 03:55:00,48.3,35.5,30.11,West,271,12.7,12.7,61,0.00,CLR,,0.00,WeatherDisplay:10.37,2014-02-08 11:55:00,
2014-02-08 04:00:00,48.3,35.5,30.11,West,274,12.7,12.7,61,0.00,CLR,,0.00,WeatherDisplay:10.37,2014-02-08 12:00:00,
2014-02-08 04:05:00,48.3,35.0,30.11,SW,236,16.1,16.1,60,0.00,CLR,,0.00,WeatherDisplay:10.37,2014-02-08 12:05:00,
2014-02-08 04:10:00,48.7,35.0,30.11,WSW,255,16.1,16.1,59,0.00,CLR,,0.00,WeatherDisplay:10.37,2014-02-08 12:10:00,
2014-02-08 04:15:00,48.7,34.6,30.11,WSW,247,13.8,13.8,58,0.00,CLR,,0.00,WeatherDisplay:10.37,2014-02-08 12:15:00,
2014-02-08 04:20:00,48.7,34.1,30.11,WSW,254,16.1,16.1,57,0.00,CLR,,0.00,WeatherDisplay:10.37,2014-02-08 12:20:00,
2014-02-08 04:25:00,49.0,34.0,30.11,West,272,13.8,13.8,56,0.00,CLR,,0.00,WeatherDisplay:10.37,2014-02-08 12:25:00,
2014-02-08 04:30:00,49.0,33.5,30.11,SW,224,12.0,12.0,55,0.00,CLR,,0.00,WeatherDisplay:10.37,2014-02-08 12:30:00,
2014-02-08 04:35:00,48.9,33.4,30.12,SW,229,13.8,13.8,55,0.00,CLR,,0.00,WeatherDisplay:10.37,2014-02-08 12:35:00,
2014-02-08 04:40:00,48.9,33.4,30.12,SW,226,10.4,10.4,55,0.00,CLR,,0.00,WeatherDisplay:10.37,2014-02-08 12:40:00,
2014-02-08 04:45:00,48.7,33.2,30.12,WSW,250,6.0,6.0,55,0.00,CLR,,0.00,WeatherDisplay:10.37,2014-02-08 12:45:00,
2014-02-08 04:50:00,48.8,33.3,30.12,WSW,247,9.2,9.2,55,0.00,CLR,,0.00,WeatherDisplay:10.37,2014-02-08 12:50:00,
2014-02-08 04:55:00,48.6,33.1,30.12,WSW,257,9.2,9.2,55,0.00,CLR,,0.00,WeatherDisplay:10.37,2014-02-08 12:55:00,
2014-02-08 05:00:00,48.7,33.2,30.12,SW,233,6.9,6.9,55,0.00,CLR,,0.00,WeatherDisplay:10.37,2014-02-08 13:00:00,
2014-02-08 05:05:00,48.2,33.2,30.12,SW,218,5.8,5.8,56,0.00,CLR,,0.00,WeatherDisplay:10.37,2014-02-08 13:05:00,
2014-02-08 05:10:00,47.3,33.7,30.13,SW,217,5.0,5.0,59,0.00,CLR,,0.00,WeatherDisplay:10.37,2014-02-08 13:10:00,
2014-02-08 05:15:00,46.7,33.5,30.13,SW,217,3.5,3.5,60,0.00,CLR,,0.00,WeatherDisplay:10.37,2014-02-08 13:15:00,
2014-02-08 05:20:00,46.5,33.4,30.14,SW,217,1.2,0.0,60,0.00,CLR,,0.00,WeatherDisplay:10.37,2014-02-08 13:20:00,
2014-02-08 05:25:00,46.4,33.7,30.14,SW,217,1.2,1.2,61,0.00,CLR,,0.00,WeatherDisplay:10.37,2014-02-08 13:25:00,
2014-02-08 05:30:00,46.0,33.3,30.14,SSW,210,3.5,3.5,61,0.00,CLR,,0.00,WeatherDisplay:10.37,2014-02-08 13:30:00,
2014-02-08 05:35:00,45.6,32.9,30.14,SSW,211,0.0,0.0,61,0.00,CLR,,0.00,WeatherDisplay:10.37,2014-02-08 13:35:00,
2014-02-08 05:40:00,45.9,33.2,30.15,SSW,210,5.0,5.0,61,0.00,CLR,,0.00,WeatherDisplay:10.37,2014-02-08 13:40:00,
2014-02-08 05:45:00,46.0,33.3,30.15,WNW,284,3.5,3.5,61,0.00,CLR,,0.00,WeatherDisplay:10.37,2014-02-08 13:45:00,
2014-02-08 05:50:00,46.0,33.7,30.15,WNW,288,4.0,4.0,62,0.00,CLR,,0.00,WeatherDisplay:10.37,2014-02-08 13:50:00,
2014-02-08 05:55:00,46.3,33.6,30.15,WNW,283,4.6,4.6,61,0.00,CLR,,0.00,WeatherDisplay:10.37,2014-02-08 13:55:00,
2014-02-08 06:00:00,46.9,33.3,30.15,WNW,283,4.6,4.6,59,0.00,CLR,,0.00,WeatherDisplay:10.37,2014-02-08 14:00:00,
2014-02-08 06:05:00,46.7,32.7,30.15,NW,322,5.8,5.8,58,0.00,CLR,,0.00,WeatherDisplay:10.37,2014-02-08 14:05:00,
2014-02-08 06:10:00,45.7,31.8,30.15,NW,322,5.8,5.8,58,0.00,CLR,,0.00,WeatherDisplay:10.37,2014-02-08 14:10:00,
2014-02-08 06:15:00,45.6,32.5,30.15,NW,321,1.2,0.0,60,0.00,CLR,,0.00,WeatherDisplay:10.37,2014-02-08 14:15:00,
2014-02-08 06:20:00,45.4,32.3,30.15,NW,321,3.5,3.5,60,0.00,CLR,,0.00,WeatherDisplay:10.37,2014-02-08 14:20:00,
2014-02-08 06:25:00,45.0,31.9,30.16,NW,321,0.0,0.0,60,0.00,CLR,,0.00,WeatherDisplay:10.37,2014-02-08 14:25:00,
2014-02-08 06:30:00,44.8,32.2,30.16,NW,321,2.3,2.3,61,0.00,CLR,,0.00,WeatherDisplay:10.37,2014-02-08 14:30:00,
2014-02-08 06:35:00,45.2,32.5,30.16,WNW,283,5.0,5.0,61,0.00,CLR,,0.00,WeatherDisplay:10.37,2014-02-08 14:35:00,
2014-02-08 06:40:00,45.9,32.8,30.16,WNW,295,3.5,3.5,60,0.00,CLR,,0.00,WeatherDisplay:10.37,2014-02-08 14:40:00,
2014-02-08 06:45:00,46.3,33.2,30.16,NW,311,3.5,3.5,60,0.00,CLR,,0.00,WeatherDisplay:10.37,2014-02-08 14:45:00,
2014-02-08 06:50:00,46.4,32.8,30.16,NW,311,1.2,0.0,59,0.00,CLR,,0.00,WeatherDisplay:10.37,2014-02-08 14:50:00,
2014-02-08 06:55:00,46.1,32.6,30.17,South,169,3.5,3.5,59,0.00,CLR,,0.00,WeatherDisplay:10.37,2014-02-08 14:55:00,
2014-02-08 07:00:00,45.7,32.6,30.17,SSW,206,4.6,4.6,60,0.00,CLR,,0.00,WeatherDisplay:10.37,2014-02-08 15:00:00,
2014-02-08 07:05:00,45.9,32.8,30.17,SW,224,4.6,4.6,60,0.00,CLR,,0.00,WeatherDisplay:10.37,2014-02-08 15:05:00,
2014-02-08 07:10:00,46.1,33.0,30.17,West,259,6.9,6.9,60,0.00,CLR,,0.00,WeatherDisplay:10.37,2014-02-08 15:10:00,
2014-02-08 07:15:00,47.2,34.0,30.17,WSW,244,14.0,14.0,60,0.00,CLR,,0.00,WeatherDisplay:10.37,2014-02-08 15:15:00,
2014-02-08 07:28:00,49.4,34.3,30.17,West,273,13.8,13.8,56,0.00,CLR,,0.00,WeatherDisplay:10.37,2014-02-08 15:28:00,
2014-02-08 07:33:00,49.6,34.1,30.17,West,281,11.5,11.5,55,0.00,CLR,,0.00,WeatherDisplay:10.37,2014-02-08 15:33:00,
2014-02-08 07:38:00,49.6,34.1,30.17,West,273,11.5,11.5,55,0.00,CLR,,0.00,WeatherDisplay:10.37,2014-02-08 15:38:00,
2014-02-08 07:43:00,49.6,35.0,30.17,WSW,254,15.0,15.0,57,0.00,CLR,,0.00,WeatherDisplay:10.37,2014-02-08 15:43:00,
2014-02-08 07:48:00,49.6,35.4,30.17,West,276,13.0,13.0,58,0.00,CLR,,0.00,WeatherDisplay:10.37,2014-02-08 15:48:00,
2014-02-08 07:53:00,49.8,36.0,30.17,West,264,18.4,18.4,59,0.00,CLR,,0.00,WeatherDisplay:10.37,2014-02-08 15:53:00,
2014-02-08 07:58:00,49.9,36.1,30.17,West,273,13.8,13.8,59,0.00,CLR,,0.00,WeatherDisplay:10.37,2014-02-08 15:58:00,
2014-02-08 08:03:00,50.3,36.5,30.18,West,260,15.0,15.0,59,0.00,CLR,,0.00,WeatherDisplay:10.37,2014-02-08 16:03:00,
2014-02-08 08:08:00,50.8,36.5,30.18,WSW,249,12.7,12.7,58,0.00,CLR,,0.00,WeatherDisplay:10.37,2014-02-08 16:08:00,
2014-02-08 08:13:00,51.3,37.0,30.19,SSW,201,10.0,10.0,58,0.00,CLR,,0.00,WeatherDisplay:10.37,2014-02-08 16:13:00,
2014-02-08 08:18:00,51.5,36.8,30.19,WSW,240,11.5,11.5,57,0.00,CLR,,0.00,WeatherDisplay:10.37,2014-02-08 16:18:00,
2014-02-08 08:23:00,51.8,37.0,30.19,WSW,241,11.5,11.5,57,0.00,CLR,,0.00,WeatherDisplay:10.37,2014-02-08 16:23:00,
2014-02-08 08:28:00,52.3,37.5,30.19,SW,231,11.5,11.5,57,0.00,CLR,,0.00,WeatherDisplay:10.37,2014-02-08 16:28:00,
2014-02-08 08:33:00,52.8,37.5,30.19,WSW,241,15.0,15.0,56,0.00,CLR,,0.00,WeatherDisplay:10.37,2014-02-08 16:33:00,
2014-02-08 08:38:00,53.0,37.7,30.18,SSW,208,12.7,12.7,56,0.00,CLR,,0.00,WeatherDisplay:10.37,2014-02-08 16:38:00,
2014-02-08 08:43:00,53.4,38.1,30.18,WSW,244,17.0,17.0,56,0.00,CLR,,0.00,WeatherDisplay:10.37,2014-02-08 16:43:00,
2014-02-08 08:48:00,53.9,38.6,30.18,WSW,247,17.3,17.3,56,0.00,CLR,,0.00,WeatherDisplay:10.37,2014-02-08 16:48:00,
2014-02-08 08:53:00,54.2,38.4,30.18,WSW,237,17.3,17.3,55,0.00,CLR,,0.00,WeatherDisplay:10.37,2014-02-08 16:53:00,
2014-02-08 08:58:00,54.5,39.1,30.18,WSW,257,15.0,15.0,56,0.00,CLR,,0.00,WeatherDisplay:10.37,2014-02-08 16:58:00,
2014-02-08 09:03:00,54.8,38.9,30.19,West,273,15.0,15.0,55,0.00,CLR,,0.00,WeatherDisplay:10.37,2014-02-08 17:03:00,
2014-02-08 09:08:00,55.1,39.2,30.19,WSW,237,15.0,15.0,55,0.00,CLR,,0.00,WeatherDisplay:10.37,2014-02-08 17:08:00,
2014-02-08 09:13:00,55.5,39.1,30.19,WSW,240,15.0,15.0,54,0.00,CLR,,0.00,WeatherDisplay:10.37,2014-02-08 17:13:00,
2014-02-08 09:18:00,55.9,39.0,30.19,SW,219,20.0,20.0,53,0.00,CLR,,0.00,WeatherDisplay:10.37,2014-02-08 17:18:00,
2014-02-08 09:23:00,56.3,38.9,30.19,WSW,237,20.7,20.7,52,0.00,CLR,,0.00,WeatherDisplay:10.37,2014-02-08 17:23:00,
2014-02-08 09:28:00,56.8,39.4,30.18,WSW,245,15.0,15.0,52,0.00,CLR,,0.00,WeatherDisplay:10.37,2014-02-08 17:28:00,
2014-02-08 09:33:00,57.3,39.8,30.19,WSW,248,14.0,14.0,52,0.00,CLR,,0.00,WeatherDisplay:10.37,2014-02-08 17:33:00,
2014-02-08 09:38:00,57.7,39.7,30.19,WSW,244,15.0,15.0,51,0.00,CLR,,0.00,WeatherDisplay:10.37,2014-02-08 17:38:00,
2014-02-08 09:43:00,58.2,40.1,30.19,WSW,246,15.0,15.0,51,0.00,CLR,,0.00,WeatherDisplay:10.37,2014-02-08 17:43:00,
2014-02-08 09:48:00,58.4,40.3,30.20,WSW,248,17.3,17.3,51,0.00,CLR,,0.00,WeatherDisplay:10.37,2014-02-08 17:48:00,
2014-02-08 09:53:00,59.0,40.9,30.19,WSW,253,13.0,13.0,51,0.00,CLR,,0.00,WeatherDisplay:10.37,2014-02-08 17:53:00,
2014-02-08 09:58:00,59.3,40.7,30.19,SW,225,11.0,11.0,50,0.00,CLR,,0.00,WeatherDisplay:10.37,2014-02-08 17:58:00,
2014-02-08 10:03:00,60.0,41.3,30.19,West,260,13.8,13.8,50,0.00,CLR,,0.00,WeatherDisplay:10.37,2014-02-08 18:03:00,
2014-02-08 10:08:00,60.1,41.4,30.19,WSW,246,11.5,11.5,50,0.00,CLR,,0.00,WeatherDisplay:10.37,2014-02-08 18:08:00,
2014-02-08 10:13:00,60.4,41.1,30.19,SW,223,11.5,11.5,49,0.00,CLR,,0.00,WeatherDisplay:10.37,2014-02-08 18:13:00,
2014-02-08 10:18:00,60.6,41.8,30.19,West,259,9.2,9.2,50,0.00,CLR,,0.00,WeatherDisplay:10.37,2014-02-08 18:18:00,
2014-02-08 10:23:00,60.8,42.0,30.19,SSW,202,10.4,10.4,50,0.00,CLR,,0.00,WeatherDisplay:10.37,2014-02-08 18:23:00,
2014-02-08 10:28:00,61.3,42.0,30.19,SSW,194,6.9,6.9,49,0.00,CLR,,0.00,WeatherDisplay:10.37,2014-02-08 18:28:00,
2014-02-08 10:33:00,62.3,42.3,30.19,SSE,164,0.0,0.0,48,0.00,CLR,,0.00,WeatherDisplay:10.37,2014-02-08 18:33:00,
2014-02-08 10:38:00,63.1,42.5,30.18,SSW,200,3.5,3.5,47,0.00,CLR,,0.00,WeatherDisplay:10.37,2014-02-08 18:38:00,
2014-02-08 10:43:00,63.7,43.1,30.18,NW,304,0.0,0.0,47,0.00,CLR,,0.00,WeatherDisplay:10.37,2014-02-08 18:43:00,
2014-02-08 10:48:00,63.8,42.6,30.18,SSW,208,13.0,13.0,46,0.00,CLR,,0.00,WeatherDisplay:10.37,2014-02-08 18:48:00,
2014-02-08 10:53:00,63.1,42.5,30.18,SSW,207,11.5,11.5,47,0.00,CLR,,0.00,WeatherDisplay:10.37,2014-02-08 18:53:00,
2014-02-08 10:58:00,63.0,42.4,30.17,South,173,9.2,9.2,47,0.00,CLR,,0.00,WeatherDisplay:10.37,2014-02-08 18:58:00,
2014-02-08 11:03:00,63.2,42.6,30.17,WSW,242,7.0,7.0,47,0.00,CLR,,0.00,WeatherDisplay:10.37,2014-02-08 19:03:00,
2014-02-08 11:08:00,63.6,43.0,30.16,WSW,242,6.0,6.0,47,0.00,CLR,,0.00,WeatherDisplay:10.37,2014-02-08 19:08:00,
2014-02-08 11:13:00,63.9,42.1,30.16,SSW,196,4.6,4.6,45,0.00,CLR,,0.00,WeatherDisplay:10.37,2014-02-08 19:13:00,
2014-02-08 11:18:00,63.9,42.1,30.16,WSW,240,2.3,2.3,45,0.00,CLR,,0.00,WeatherDisplay:10.37,2014-02-08 19:18:00,
2014-02-08 11:23:00,64.4,42.6,30.16,WSW,250,3.5,3.5,45,0.00,CLR,,0.00,WeatherDisplay:10.37,2014-02-08 19:23:00,
2014-02-08 11:28:00,65.1,42.0,30.16,WSW,257,0.0,0.0,43,0.00,CLR,,0.00,WeatherDisplay:10.37,2014-02-08 19:28:00,
2014-02-08 11:33:00,65.1,42.0,30.16,North,360,6.9,6.9,43,0.00,CLR,,0.00,WeatherDisplay:10.37,2014-02-08 19:33:00,
2014-02-08 11:38:00,64.7,42.3,30.15,West,263,3.5,3.5,44,0.00,CLR,,0.00,WeatherDisplay:10.37,2014-02-08 19:38:00,
2014-02-08 11:43:00,65.1,42.6,30.15,North,350,4.6,4.6,44,0.00,CLR,,0.00,WeatherDisplay:10.37,2014-02-08 19:43:00,
2014-02-08 11:48:00,65.0,41.9,30.15,NW,318,5.8,5.8,43,0.00,CLR,,0.00,WeatherDisplay:10.37,2014-02-08 19:48:00,
2014-02-08 11:53:00,65.2,42.1,30.15,ENE,65,4.6,4.6,43,0.00,CLR,,0.00,WeatherDisplay:10.37,2014-02-08 19:53:00,
2014-02-08 11:58:00,65.4,42.3,30.15,North,355,2.0,2.0,43,0.00,CLR,,0.00,WeatherDisplay:10.37,2014-02-08 19:58:00,
2014-02-08 12:03:00,65.6,41.9,30.15,North,9,6.9,6.9,42,0.00,CLR,,0.00,WeatherDisplay:10.37,2014-02-08 20:03:00,
2014-02-08 12:08:00,65.1,41.4,30.14,SW,215,5.8,5.8,42,0.00,CLR,,0.00,WeatherDisplay:10.37,2014-02-08 20:08:00,
2014-02-08 12:13:00,65.3,41.6,30.15,West,268,5.0,5.0,42,0.00,CLR,,0.00,WeatherDisplay:10.37,2014-02-08 20:13:00,
2014-02-08 12:18:00,65.6,41.9,30.15,West,281,10.0,10.0,42,0.00,CLR,,0.00,WeatherDisplay:10.37,2014-02-08 20:18:00,
2014-02-08 12:23:00,65.8,42.7,30.14,WSW,242,11.5,11.5,43,0.00,CLR,,0.00,WeatherDisplay:10.37,2014-02-08 20:23:00,
2014-02-08 12:28:00,66.1,42.3,30.14,WNW,282,10.4,10.4,42,0.00,CLR,,0.00,WeatherDisplay:10.37,2014-02-08 20:28:00,
2014-02-08 12:33:00,66.7,42.9,30.14,SW,231,15.0,15.0,42,0.00,CLR,,0.00,WeatherDisplay:10.37,2014-02-08 20:33:00,
2014-02-08 12:38:00,66.3,41.9,30.13,SW,215,15.0,15.0,41,0.00,CLR,,0.00,WeatherDisplay:10.37,2014-02-08 20:38:00,
2014-02-08 12:43:00,66.6,42.2,30.13,SW,221,11.5,11.5,41,0.00,CLR,,0.00,WeatherDisplay:10.37,2014-02-08 20:43:00,
2014-02-08 12:48:00,67.0,41.9,30.13,SW,215,16.0,16.0,40,0.00,CLR,,0.00,WeatherDisplay:10.37,2014-02-08 20:48:00,
2014-02-08 12:53:00,67.6,41.1,30.12,SW,220,19.6,19.6,38,0.00,CLR,,0.00,WeatherDisplay:10.37,2014-02-08 20:53:00,
2014-02-08 12:57:00,68.0,40.7,30.12,SSW,197,15.0,15.0,37,0.00,CLR,,0.00,WeatherDisplay:10.37,2014-02-08 20:57:00,
2014-02-08 13:02:00,68.6,39.8,30.12,SW,230,19.0,19.0,35,0.00,CLR,,0.00,WeatherDisplay:10.37,2014-02-08 21:02:00,
2014-02-08 13:07:00,68.5,39.8,30.12,SSW,213,17.3,17.3,35,0.00,CLR,,0.00,WeatherDisplay:10.37,2014-02-08 21:07:00,
2014-02-08 13:12:00,68.6,38.3,30.12,SW,236,12.0,12.0,33,0.00,CLR,,0.00,WeatherDisplay:10.37,2014-02-08 21:12:00,
2014-02-08 13:17:00,68.3,36.5,30.12,WNW,284,18.4,18.4,31,0.00,CLR,,0.00,WeatherDisplay:10.37,2014-02-08 21:17:00,
2014-02-08 13:22:00,68.2,32.0,30.12,WSW,246,15.0,15.0,26,0.00,CLR,,0.00,WeatherDisplay:10.37,2014-02-08 21:22:00,
2014-02-08 13:27:00,68.2,33.8,30.12,West,268,18.4,18.4,28,0.00,CLR,,0.00,WeatherDisplay:10.37,2014-02-08 21:27:00,
2014-02-08 13:32:00,67.8,34.4,30.12,West,270,21.9,21.9,29,0.00,CLR,,0.00,WeatherDisplay:10.37,2014-02-08 21:32:00,
2014-02-08 13:37:00,67.6,34.2,30.12,West,278,12.7,12.7,29,0.00,CLR,,0.00,WeatherDisplay:10.37,2014-02-08 21:37:00,
2014-02-08 13:42:00,67.7,33.4,30.12,WSW,257,20.7,20.7,28,0.00,CLR,,0.00,WeatherDisplay:10.37,2014-02-08 21:42:00,
2014-02-08 13:47:00,67.5,32.3,30.12,West,271,15.0,15.0,27,0.00,CLR,,0.00,WeatherDisplay:10.37,2014-02-08 21:47:00,
2014-02-08 13:52:00,67.6,29.5,30.12,West,269,20.7,20.7,24,0.00,CLR,,0.00,WeatherDisplay:10.37,2014-02-08 21:52:00,
2014-02-08 13:57:00,67.4,28.3,30.12,West,274,21.0,21.0,23,0.00,CLR,,0.00,WeatherDisplay:10.37,2014-02-08 21:57:00,
2014-02-08 14:02:00,67.3,26.0,30.12,WSW,251,19.6,19.6,21,0.00,CLR,,0.00,WeatherDisplay:10.37,2014-02-08 22:02:00,
2014-02-08 14:07:00,67.3,27.1,30.12,West,268,21.9,21.9,22,0.00,CLR,,0.00,WeatherDisplay:10.37,2014-02-08 22:07:00,
2014-02-08 14:12:00,67.3,26.0,30.12,West,264,24.2,24.2,21,0.00,CLR,,0.00,WeatherDisplay:10.37,2014-02-08 22:12:00,
2014-02-08 14:17:00,67.2,27.0,30.11,West,259,20.7,20.7,22,0.00,CLR,,0.00,WeatherDisplay:10.37,2014-02-08 22:17:00,
2014-02-08 14:22:00,68.0,25.4,30.11,WSW,249,20.7,20.7,20,0.00,CLR,,0.00,WeatherDisplay:10.37,2014-02-08 22:22:00,
2014-02-08 14:27:00,68.3,25.6,30.11,West,264,19.6,19.6,20,0.00,CLR,,0.00,WeatherDisplay:10.37,2014-02-08 22:27:00,
2014-02-08 14:32:00,68.9,22.2,30.11,SSW,202,26.5,26.5,17,0.00,CLR,,0.00,WeatherDisplay:10.37,2014-02-08 22:32:00,
2014-02-08 14:37:00,68.9,19.3,30.11,WSW,253,26.5,26.5,15,0.00,CLR,,0.00,WeatherDisplay:10.37,2014-02-08 22:37:00,
2014-02-08 14:42:00,69.2,22.5,30.10,West,269,19.6,19.6,17,0.00,CLR,,0.00,WeatherDisplay:10.37,2014-02-08 22:42:00,
2014-02-08 14:47:00,68.9,26.1,30.11,WSW,244,23.0,23.0,20,0.00,CLR,,0.00,WeatherDisplay:10.37,2014-02-08 22:47:00,
2014-02-08 14:52:00,67.9,26.5,30.11,WSW,253,21.9,21.9,21,0.00,CLR,,0.00,WeatherDisplay:10.37,2014-02-08 22:52:00,
2014-02-08 14:57:00,67.6,26.2,30.11,WSW,246,21.9,21.9,21,0.00,CLR,,0.00,WeatherDisplay:10.37,2014-02-08 22:57:00,
2014-02-08 15:02:00,67.8,26.4,30.11,WSW,256,22.0,22.0,21,0.00,CLR,,0.00,WeatherDisplay:10.37,2014-02-08 23:02:00,
2014-02-08 15:07:00,68.0,27.7,30.11,WSW,256,20.7,20.7,22,0.00,CLR,,0.00,WeatherDisplay:10.37,2014-02-08 23:07:00,
2014-02-08 15:12:00,67.9,27.6,30.11,WSW,256,19.6,19.6,22,0.00,CLR,,0.00,WeatherDisplay:10.37,2014-02-08 23:12:00,
2014-02-08 15:17:00,67.4,28.3,30.11,SW,232,24.2,24.2,23,0.00,CLR,,0.00,WeatherDisplay:10.37,2014-02-08 23:17:00,
2014-02-08 15:22:00,67.1,28.0,30.11,SW,230,20.7,20.7,23,0.00,CLR,,0.00,WeatherDisplay:10.37,2014-02-08 23:22:00,
2014-02-08 15:27:00,67.4,28.3,30.11,West,264,19.6,19.6,23,0.00,CLR,,0.00,WeatherDisplay:10.37,2014-02-08 23:27:00,
2014-02-08 15:32:00,68.1,28.9,30.11,West,261,17.3,17.3,23,0.00,CLR,,0.00,WeatherDisplay:10.37,2014-02-08 23:32:00,
2014-02-08 15:37:00,68.4,29.1,30.12,West,263,19.6,19.6,23,0.00,CLR,,0.00,WeatherDisplay:10.37,2014-02-08 23:37:00,
2014-02-08 15:42:00,67.8,29.7,30.12,WNW,297,19.6,19.6,24,0.00,CLR,,0.00,WeatherDisplay:10.37,2014-02-08 23:42:00,
2014-02-08 15:47:00,67.0,29.0,30.12,West,272,25.3,25.3,24,0.00,CLR,,0.00,WeatherDisplay:10.37,2014-02-08 23:47:00,
2014-02-08 15:52:00,66.7,28.7,30.12,West,267,23.0,23.0,24,0.00,CLR,,0.00,WeatherDisplay:10.37,2014-02-08 23:52:00,
2014-02-08 15:57:00,66.5,28.6,30.13,West,281,21.9,21.9,24,0.00,CLR,,0.00,WeatherDisplay:10.37,2014-02-08 23:57:00,
2014-02-08 16:02:00,65.9,31.8,30.13,NW,305,24.2,24.2,28,0.00,CLR,,0.00,WeatherDisplay:10.37,2014-02-09 00:02:00,
2014-02-08 16:07:00,65.1,31.2,30.13,West,276,19.6,19.6,28,0.00,CLR,,0.00,WeatherDisplay:10.37,2014-02-09 00:07:00,
2014-02-08 16:12:00,64.9,30.1,30.13,WNW,290,19.6,19.6,27,0.00,CLR,,0.00,WeatherDisplay:10.37,2014-02-09 00:12:00,
2014-02-08 16:17:00,64.6,30.7,30.13,WNW,293,19.6,19.6,28,0.00,CLR,,0.00,WeatherDisplay:10.37,2014-02-09 00:17:00,
2014-02-08 16:22:00,64.3,31.3,30.14,West,271,26.5,26.5,29,0.00,CLR,,0.00,WeatherDisplay:10.37,2014-02-09 00:22:00,
2014-02-08 16:27:00,64.2,32.1,30.14,West,263,20.7,20.7,30,0.00,CLR,,0.00,WeatherDisplay:10.37,2014-02-09 00:27:00,
2014-02-08 16:32:00,63.6,32.4,30.14,West,267,26.5,26.5,31,0.00,CLR,,0.00,WeatherDisplay:10.37,2014-02-09 00:32:00,
2014-02-08 16:37:00,63.1,32.7,30.15,West,260,31.1,31.1,32,0.00,CLR,,0.00,WeatherDisplay:10.37,2014-02-09 00:37:00,
2014-02-08 16:42:00,62.6,33.8,30.15,SW,236,28.8,28.8,34,0.00,CLR,,0.00,WeatherDisplay:10.37,2014-02-09 00:42:00,
2014-02-08 16:47:00,62.3,35.0,30.15,WSW,238,26.5,26.5,36,0.00,CLR,,0.00,WeatherDisplay:10.37,2014-02-09 00:47:00,
2014-02-08 16:52:00,62.1,34.8,30.16,WSW,248,25.3,25.3,36,0.00,CLR,,0.00,WeatherDisplay:10.37,2014-02-09 00:52:00,
2014-02-08 16:57:00,61.8,35.9,30.16,WSW,253,25.3,25.3,38,0.00,CLR,,0.00,WeatherDisplay:10.37,2014-02-09 00:57:00,
2014-02-08 17:02:00,61.4,36.8,30.16,West,261,26.5,26.5,40,0.00,CLR,,0.00,WeatherDisplay:10.37,2014-02-09 01:02:00,
2014-02-08 17:07:00,61.1,37.8,30.16,West,259,26.5,26.5,42,0.00,CLR,,0.00,WeatherDisplay:10.37,2014-02-09 01:07:00,
2014-02-08 17:12:00,61.2,38.5,30.16,WSW,249,23.0,23.0,43,0.00,CLR,,0.00,WeatherDisplay:10.37,2014-02-09 01:12:00,
2014-02-08 17:17:00,61.2,38.5,30.16,West,271,29.9,29.9,43,0.00,CLR,,0.00,WeatherDisplay:10.37,2014-02-09 01:17:00,
2014-02-08 17:22:00,61.0,38.9,30.17,West,267,24.2,24.2,44,0.00,CLR,,0.00,WeatherDisplay:10.37,2014-02-09 01:22:00,
2014-02-08 17:27:00,60.9,38.8,30.16,WSW,246,27.6,27.6,44,0.00,CLR,,0.00,WeatherDisplay:10.37,2014-02-09 01:27:00,
2014-02-08 17:32:00,60.5,39.0,30.16,West,261,24.2,24.2,45,0.00,CLR,,0.00,WeatherDisplay:10.37,2014-02-09 01:32:00,
2014-02-08 17:37:00,60.0,39.1,30.17,West,267,24.2,24.2,46,0.00,CLR,,0.00,WeatherDisplay:10.37,2014-02-09 01:37:00,
2014-02-08 17:43:00,59.8,39.5,30.17,WSW,247,30.0,30.0,47,0.00,CLR,,0.00,WeatherDisplay:10.37,2014-02-09 01:43:00,
2014-02-08 17:48:00,59.8,39.5,30.16,WSW,246,23.0,23.0,47,0.00,CLR,,0.00,WeatherDisplay:10.37,2014-02-09 01:48:00,
2014-02-08 17:53:00,59.5,39.8,30.16,West,268,25.3,25.3,48,0.00,CLR,,0.00,WeatherDisplay:10.37,2014-02-09 01:53:00,
2014-02-08 17:58:00,59.5,39.2,30.16,WNW,285,21.0,21.0,47,0.00,CLR,,0.00,WeatherDisplay:10.37,2014-02-09 01:58:00,
2014-02-08 18:03:00,59.0,39.3,30.16,WNW,295,28.8,28.8,48,0.00,CLR,,0.00,WeatherDisplay:10.37,2014-02-09 02:03:00,
2014-02-08 18:08:00,59.0,39.3,30.16,West,275,21.9,21.9,48,0.00,CLR,,0.00,WeatherDisplay:10.37,2014-02-09 02:08:00,
2014-02-08 18:13:00,59.0,39.9,30.16,West,260,19.6,19.6,49,0.00,CLR,,0.00,WeatherDisplay:10.37,2014-02-09 02:13:00,
2014-02-08 18:18:00,58.5,40.4,30.17,SW,229,10.4,10.4,51,0.00,CLR,,0.00,WeatherDisplay:10.37,2014-02-09 02:18:00,
2014-02-08 18:23:00,58.1,40.1,30.17,SSW,211,9.2,9.2,51,0.00,CLR,,0.00,WeatherDisplay:10.37,2014-02-09 02:23:00,
2014-02-08 18:28:00,56.8,40.8,30.17,South,190,10.4,10.4,55,0.00,CLR,,0.00,WeatherDisplay:10.37,2014-02-09 02:28:00,
2014-02-08 18:33:00,56.2,40.7,30.17,SW,215,11.5,11.5,56,0.00,CLR,,0.00,WeatherDisplay:10.37,2014-02-09 02:33:00,
2014-02-08 18:38:00,56.2,41.2,30.17,SSW,204,17.3,17.3,57,0.00,CLR,,0.00,WeatherDisplay:10.37,2014-02-09 02:38:00,
2014-02-08 18:43:00,56.4,41.3,30.17,South,186,13.0,13.0,57,0.00,CLR,,0.00,WeatherDisplay:10.37,2014-02-09 02:43:00,
2014-02-08 18:48:00,56.4,41.3,30.17,SW,233,13.8,13.8,57,0.00,CLR,,0.00,WeatherDisplay:10.37,2014-02-09 02:48:00,
2014-02-08 18:53:00,56.6,41.1,30.18,SSW,208,15.0,15.0,56,0.00,CLR,,0.00,WeatherDisplay:10.37,2014-02-09 02:53:00,
2014-02-08 18:58:00,56.8,41.3,30.17,South,185,11.0,11.0,56,0.00,CLR,,0.00,WeatherDisplay:10.37,2014-02-09 02:58:00,
2014-02-08 19:03:00,56.9,40.9,30.17,South,186,16.1,16.1,55,0.00,CLR,,0.00,WeatherDisplay:10.37,2014-02-09 03:03:00,
2014-02-08 19:08:00,57.3,40.3,30.17,South,178,20.7,20.7,53,0.00,CLR,,0.00,WeatherDisplay:10.37,2014-02-09 03:08:00,
2014-02-08 19:13:00,57.5,40.5,30.16,WSW,250,17.0,17.0,53,0.00,CLR,,0.00,WeatherDisplay:10.37,2014-02-09 03:13:00,
2014-02-08 19:18:00,57.6,40.1,30.15,WNW,286,18.4,18.4,52,0.00,CLR,,0.00,WeatherDisplay:10.37,2014-02-09 03:18:00,
2014-02-08 19:23:00,57.6,40.1,30.16,WNW,298,16.1,16.1,52,0.00,CLR,,0.00,WeatherDisplay:10.37,2014-02-09 03:23:00,
2014-02-08 19:28:00,57.5,40.0,30.16,West,280,19.6,19.6,52,0.00,CLR,,0.00,WeatherDisplay:10.37,2014-02-09 03:28:00,
2014-02-08 19:33:00,57.5,40.0,30.16,West,266,18.4,18.4,52,0.00,CLR,,0.00,WeatherDisplay:10.37,2014-02-09 03:33:00,
2014-02-08 19:38:00,57.4,39.9,30.16,WNW,283,17.3,17.3,52,0.00,CLR,,0.00,WeatherDisplay:10.37,2014-02-09 03:38:00,
2014-02-08 19:43:00,57.1,40.1,30.16,WSW,243,11.5,11.5,53,0.00,CLR,,0.00,WeatherDisplay:10.37,2014-02-09 03:43:00,
2014-02-08 19:48:00,56.6,39.7,30.16,SW,231,6.9,6.9,53,0.00,CLR,,0.00,WeatherDisplay:10.37,2014-02-09 03:48:00,
2014-02-08 19:53:00,56.2,39.8,30.16,WSW,245,9.2,9.2,54,0.00,CLR,,0.00,WeatherDisplay:10.37,2014-02-09 03:53:00,
2014-02-08 19:58:00,56.4,40.0,30.17,WSW,246,12.7,12.7,54,0.00,CLR,,0.00,WeatherDisplay:10.37,2014-02-09 03:58:00,
2014-02-08 20:03:00,56.5,40.5,30.17,WSW,257,17.3,17.3,55,0.00,CLR,,0.00,WeatherDisplay:10.37,2014-02-09 04:03:00,
2014-02-08 20:08:00,56.4,40.4,30.17,WSW,254,15.0,15.0,55,0.00,CLR,,0.00,WeatherDisplay:10.37,2014-02-09 04:08:00,
2014-02-08 20:13:00,55.9,40.0,30.17,WSW,248,12.0,12.0,55,0.00,CLR,,0.00,WeatherDisplay:10.37,2014-02-09 04:13:00,
2014-02-08 20:18:00,55.3,40.3,30.16,West,259,15.0,15.0,57,0.00,CLR,,0.00,WeatherDisplay:10.37,2014-02-09 04:18:00,
2014-02-08 20:23:00,55.1,41.0,30.16,WSW,245,18.0,18.0,59,0.00,CLR,,0.00,WeatherDisplay:10.37,2014-02-09 04:23:00,
2014-02-08 20:28:00,55.1,41.0,30.16,WSW,254,15.0,15.0,59,0.00,CLR,,0.00,WeatherDisplay:10.37,2014-02-09 04:28:00,
2014-02-08 20:33:00,54.9,41.3,30.16,West,268,13.8,13.8,60,0.00,CLR,,0.00,WeatherDisplay:10.37,2014-02-09 04:33:00,
2014-02-08 20:38:00,54.9,41.3,30.16,WSW,257,15.0,15.0,60,0.00,CLR,,0.00,WeatherDisplay:10.37,2014-02-09 04:38:00,
2014-02-08 20:43:00,54.9,41.3,30.17,West,270,11.5,11.5,60,0.00,CLR,,0.00,WeatherDisplay:10.37,2014-02-09 04:43:00,
2014-02-08 20:48:00,54.7,41.1,30.17,WSW,246,9.2,9.2,60,0.00,CLR,,0.00,WeatherDisplay:10.37,2014-02-09 04:48:00,
2014-02-08 20:53:00,54.5,41.3,30.17,WSW,255,2.3,2.3,61,0.00,CLR,,0.00,WeatherDisplay:10.37,2014-02-09 04:53:00,
2014-02-08 20:58:00,54.4,41.2,30.16,SSW,208,6.9,6.9,61,0.00,CLR,,0.00,WeatherDisplay:10.37,2014-02-09 04:58:00,
2014-02-08 21:01:00,54.4,41.2,30.16,WSW,250,5.0,5.0,61,0.00,CLR,,0.00,WeatherDisplay:10.37,2014-02-09 05:01:00,
2014-02-08 21:02:00,54.4,41.2,30.16,WSW,253,5.8,5.8,61,0.00,CLR,,0.00,WeatherDisplay:10.37,2014-02-09 05:02:00,
2014-02-08 21:03:00,54.4,41.2,30.16,WSW,243,5.8,5.8,61,0.00,CLR,,0.00,WeatherDisplay:10.37,2014-02-09 05:03:00,
2014-02-08 21:08:00,54.3,41.1,30.16,South,182,9.2,9.2,61,0.00,CLR,,0.00,WeatherDisplay:10.37,2014-02-09 05:08:00,
2014-02-08 21:13:00,54.1,40.9,30.16,SW,232,8.1,8.1,61,0.00,CLR,,0.00,WeatherDisplay:10.37,2014-02-09 05:13:00,
2014-02-08 21:18:00,53.5,41.2,30.16,SW,229,12.7,12.7,63,0.00,CLR,,0.00,WeatherDisplay:10.37,2014-02-09 05:18:00,
2014-02-08 21:23:00,53.3,41.0,30.16,SSW,212,5.8,6.3,63,0.00,CLR,,0.00,WeatherDisplay:10.37,2014-02-09 05:23:00,
2014-02-08 21:28:00,52.9,41.0,30.16,SSW,196,6.9,6.9,64,0.00,CLR,,0.00,WeatherDisplay:10.37,2014-02-09 05:28:00,
2014-02-08 21:33:00,52.5,41.1,30.17,SSW,193,5.8,5.8,65,0.00,CLR,,0.00,WeatherDisplay:10.37,2014-02-09 05:33:00,
2014-02-08 21:38:00,52.3,40.9,30.17,South,191,7.0,7.0,65,0.00,CLR,,0.00,WeatherDisplay:10.37,2014-02-09 05:38:00,
2014-02-08 21:43:00,52.3,40.9,30.17,SSW,208,6.9,6.9,65,0.00,CLR,,0.00,WeatherDisplay:10.37,2014-02-09 05:43:00,
2014-02-08 21:48:00,52.5,41.5,30.16,WSW,240,11.0,11.0,66,0.00,CLR,,0.00,WeatherDisplay:10.37,2014-02-09 05:48:00,
2014-02-08 21:53:00,53.4,41.9,30.16,WSW,244,9.2,9.2,65,0.00,CLR,,0.00,WeatherDisplay:10.37,2014-02-09 05:53:00,
2014-02-08 21:58:00,53.9,42.0,30.16,SW,236,11.5,11.5,64,0.00,CLR,,0.00,WeatherDisplay:10.37,2014-02-09 05:58:00,
2014-02-08 22:03:00,53.6,41.7,30.16,WSW,242,11.5,11.5,64,0.00,CLR,,0.00,WeatherDisplay:10.37,2014-02-09 06:03:00,
2014-02-08 22:08:00,53.1,41.6,30.16,SSW,208,11.5,11.5,65,0.00,CLR,,0.00,WeatherDisplay:10.37,2014-02-09 06:08:00,
2014-02-08 22:13:00,52.8,41.7,30.16,SW,215,12.7,12.7,66,0.00,CLR,,0.00,WeatherDisplay:10.37,2014-02-09 06:13:00,
2014-02-08 22:18:00,52.6,41.9,30.16,SW,227,15.0,15.0,67,0.00,CLR,,0.00,WeatherDisplay:10.37,2014-02-09 06:18:00,
2014-02-08 22:23:00,52.5,41.9,30.16,SW,231,12.7,12.7,67,0.00,CLR,,0.00,WeatherDisplay:10.37,2014-02-09 06:23:00,
2014-02-08 22:28:00,52.3,41.7,30.16,WSW,253,15.0,15.0,67,0.00,CLR,,0.00,WeatherDisplay:10.37,2014-02-09 06:28:00,
2014-02-08 22:33:00,52.2,41.6,30.16,SW,233,10.4,10.4,67,0.00,CLR,,0.00,WeatherDisplay:10.37,2014-02-09 06:33:00,
2014-02-08 22:38:00,52.3,42.0,30.16,SSW,198,10.4,10.4,68,0.00,CLR,,0.00,WeatherDisplay:10.37,2014-02-09 06:38:00,
2014-02-08 22:43:00,52.2,41.6,30.16,WSW,238,11.5,11.5,67,0.00,CLR,,0.00,WeatherDisplay:10.37,2014-02-09 06:43:00,
2014-02-08 22:48:00,52.1,41.5,30.16,WSW,238,12.7,12.7,67,0.00,CLR,,0.00,WeatherDisplay:10.37,2014-02-09 06:48:00,
2014-02-08 22:53:00,52.0,41.4,30.16,WSW,252,15.0,15.0,67,0.00,CLR,,0.00,WeatherDisplay:10.37,2014-02-09 06:53:00,
2014-02-08 22:58:00,52.2,41.2,30.17,WSW,242,11.5,11.5,66,0.00,CLR,,0.00,WeatherDisplay:10.37,2014-02-09 06:58:00,
2014-02-08 23:03:00,51.9,40.5,30.17,WSW,257,11.5,11.5,65,0.00,CLR,,0.00,WeatherDisplay:10.37,2014-02-09 07:03:00,
2014-02-08 23:08:00,51.4,40.4,30.16,WSW,247,9.2,9.2,66,0.00,CLR,,0.00,WeatherDisplay:10.37,2014-02-09 07:08:00,
2014-02-08 23:13:00,51.3,40.7,30.17,WSW,257,9.2,9.2,67,0.00,CLR,,0.00,WeatherDisplay:10.37,2014-02-09 07:13:00,
2014-02-08 23:18:00,51.4,40.8,30.17,West,273,5.8,5.8,67,0.00,CLR,,0.00,WeatherDisplay:10.37,2014-02-09 07:18:00,
2014-02-08 23:23:00,51.4,41.2,30.17,WNW,288,4.6,4.6,68,0.00,CLR,,0.00,WeatherDisplay:10.37,2014-02-09 07:23:00,
2014-02-08 23:28:00,51.5,40.9,30.17,WNW,289,3.5,3.6,67,0.00,CLR,,0.00,WeatherDisplay:10.37,2014-02-09 07:28:00,
2014-02-08 23:33:00,51.4,40.8,30.17,West,279,2.0,2.0,67,0.00,CLR,,0.00,WeatherDisplay:10.37,2014-02-09 07:33:00,
2014-02-08 23:38:00,51.4,40.8,30.16,West,260,6.0,6.0,67,0.00,CLR,,0.00,WeatherDisplay:10.37,2014-02-09 07:38:00,
2014-02-08 23:43:00,51.1,40.5,30.16,WSW,253,4.6,4.6,67,0.00,CLR,,0.00,WeatherDisplay:10.37,2014-02-09 07:43:00,
2014-02-08 23:48:00,51.3,41.1,30.16,West,280,11.5,11.5,68,0.00,CLR,,0.00,WeatherDisplay:10.37,2014-02-09 07:48:00,
2014-02-08 23:53:00,51.8,41.6,30.16,WNW,294,11.5,11.5,68,0.00,CLR,,0.00,WeatherDisplay:10.37,2014-02-09 07:53:00,
2014-02-08 23:58:00,51.8,41.6,30.15,WNW,294,11.5,11.5,68,0.00,CLR,,0.00,WeatherDisplay:10.37,2014-02-09 07:58:00,